createdAt,value
2018-12-17T00:01:27.834Z,44.92
2018-12-17T00:03:53.874Z,48.08
2018-12-17T00:06:20.608Z,56.72
2018-12-17T00:08:46.636Z,45.90
2018-12-17T00:11:15.982Z,47.22
2018-12-17T00:13:41.979Z,42.40
2018-12-17T00:16:08.029Z,43.90
2018-12-17T00:18:33.976Z,45.45
2018-12-17T00:21:00.000Z,47.27
2018-12-17T00:23:25.948Z,53.72
2018-12-17T00:25:52.704Z,50.50
2018-12-17T00:28:19.423Z,50.05
2018-12-17T00:30:45.437Z,47.25
2018-12-17T00:33:11.448Z,41.55
2018-12-17T00:35:37.396Z,37.43
2018-12-17T00:38:03.397Z,43.73
2018-12-17T00:40:29.376Z,38.30
2018-12-17T00:42:55.355Z,40.07
2018-12-17T00:45:21.331Z,36.90
2018-12-17T00:47:47.293Z,49.93
2018-12-17T00:50:13.261Z,45.07
2018-12-17T00:52:39.249Z,41.00
2018-12-17T00:55:05.281Z,41.83
2018-12-17T00:57:31.268Z,45.72
2018-12-17T00:59:57.253Z,45.30
2018-12-17T01:02:23.245Z,44.97
2018-12-17T01:04:49.205Z,65.73
2018-12-17T01:07:15.217Z,54.20
2018-12-17T01:09:41.196Z,44.22
2018-12-17T01:12:07.173Z,50.10
2018-12-17T01:14:33.157Z,41.73
2018-12-17T01:16:59.121Z,40.20
2018-12-17T01:19:25.088Z,38.47
2018-12-17T01:21:52.137Z,40.70
2018-12-17T01:24:18.144Z,37.90
2018-12-17T01:26:44.207Z,42.03
2018-12-17T01:29:10.374Z,44.22
2018-12-17T01:31:36.576Z,48.10
2018-12-17T01:34:02.740Z,46.08
2018-12-17T01:36:28.803Z,46.78
2018-12-17T01:38:54.785Z,38.50
2018-12-17T01:41:20.792Z,40.23
2018-12-17T01:43:46.948Z,38.70
2018-12-17T01:46:13.053Z,40.03
2018-12-17T01:48:39.054Z,45.97
2018-12-17T01:51:05.058Z,38.47
2018-12-17T01:53:31.036Z,42.47
2018-12-17T01:55:57.006Z,41.17
2018-12-17T01:58:28.976Z,44.97
2018-12-17T02:00:48.937Z,39.43
2018-12-17T02:03:14.917Z,38.37
2018-12-17T02:05:40.975Z,37.27
2018-12-17T02:08:06.961Z,43.57
2018-12-17T02:10:32.952Z,49.83
2018-12-17T02:12:58.949Z,35.20
2018-12-17T02:15:25.062Z,37.63
2018-12-17T02:17:51.069Z,45.90
2018-12-17T02:20:17.037Z,42.83
2018-12-17T02:22:43.082Z,42.90
2018-12-17T02:25:09.149Z,34.22
2018-12-17T02:27:35.115Z,45.63
2018-12-17T02:30:01.108Z,44.03
2018-12-17T02:32:27.066Z,45.17
2018-12-17T02:34:53.029Z,39.43
2018-12-17T02:37:19.765Z,38.30
2018-12-17T02:39:46.345Z,48.13
2018-12-17T02:42:12.334Z,41.17
2018-12-17T02:44:39.136Z,33.10
2018-12-17T02:47:05.038Z,37.20
2018-12-17T02:49:31.014Z,37.00
2018-12-17T02:51:57.013Z,45.00
2018-12-17T02:54:23.729Z,35.15
2018-12-17T02:56:49.729Z,38.47
2018-12-17T02:59:15.706Z,35.20
2018-12-17T03:01:41.677Z,40.33
2018-12-17T03:04:07.671Z,43.43
2018-12-17T03:06:33.653Z,37.17
2018-12-17T03:08:59.623Z,42.20
2018-12-17T03:11:25.573Z,34.63
2018-12-17T03:14:00.863Z,34.07
2018-12-17T03:16:26.849Z,41.58
2018-12-17T03:18:52.829Z,44.37
2018-12-17T03:21:18.801Z,36.03
2018-12-17T03:23:44.760Z,35.40
2018-12-17T03:26:10.729Z,37.53
2018-12-17T03:28:36.708Z,39.03
2018-12-17T03:31:02.687Z,39.00
2018-12-17T03:33:28.698Z,33.72
2018-12-17T03:35:54.736Z,37.80
2018-12-17T03:38:20.730Z,35.90
2018-12-17T03:40:46.742Z,34.30
2018-12-17T03:43:12.676Z,36.27
2018-12-17T03:45:38.733Z,34.17
2018-12-17T03:48:04.766Z,33.40
2018-12-17T03:50:30.752Z,34.90
2018-12-17T03:52:56.733Z,39.80
2018-12-17T03:55:23.673Z,37.63
2018-12-17T03:57:49.657Z,31.87
2018-12-17T04:00:15.615Z,33.53
2018-12-17T04:02:42.309Z,33.50
2018-12-17T04:05:08.268Z,33.90
2018-12-17T04:07:34.982Z,32.97
2018-12-17T04:10:00.962Z,33.40
2018-12-17T04:12:26.945Z,33.13
2018-12-17T04:14:52.905Z,34.93
2018-12-17T04:17:18.959Z,32.80
2018-12-17T04:19:44.934Z,29.20
2018-12-17T04:22:10.926Z,31.23
2018-12-17T04:24:36.904Z,29.77
2018-12-17T04:27:02.883Z,32.50
2018-12-17T04:29:28.834Z,32.80
2018-12-17T04:31:54.801Z,32.63
2018-12-17T04:34:21.522Z,29.40
2018-12-17T04:36:47.515Z,33.90
2018-12-17T04:39:13.487Z,36.73
2018-12-17T04:41:39.460Z,34.63
2018-12-17T04:44:05.453Z,32.20
2018-12-17T04:46:31.414Z,32.67
2018-12-17T04:48:57.386Z,32.77
2018-12-17T04:51:24.121Z,30.73
2018-12-17T04:53:50.148Z,32.07
2018-12-17T04:56:16.156Z,26.85
2018-12-17T04:58:42.142Z,30.60
2018-12-17T05:01:08.170Z,26.87
2018-12-17T05:03:34.134Z,27.05
2018-12-17T05:06:00.134Z,28.40
2018-12-17T05:08:26.138Z,29.40
2018-12-17T05:10:52.088Z,27.93
2018-12-17T05:13:18.032Z,26.23
2018-12-17T05:15:44.003Z,29.77
2018-12-17T05:18:09.978Z,29.40
2018-12-17T05:20:35.936Z,28.30
2018-12-17T05:23:01.970Z,27.57
2018-12-17T05:25:27.971Z,32.28
2018-12-17T05:27:53.924Z,31.27
2018-12-17T05:30:19.902Z,31.33
2018-12-17T05:32:45.878Z,30.77
2018-12-17T05:35:11.841Z,35.57
2018-12-17T05:37:38.569Z,29.63
2018-12-17T05:40:04.566Z,27.47
2018-12-17T05:42:31.285Z,27.37
2018-12-17T05:44:57.249Z,30.20
2018-12-17T05:47:23.233Z,30.30
2018-12-17T05:49:49.190Z,30.93
2018-12-17T05:52:15.146Z,28.57
2018-12-17T05:54:41.166Z,26.37
2018-12-17T05:57:07.853Z,28.37
2018-12-17T05:59:33.843Z,29.40
2018-12-17T06:01:59.811Z,29.23
2018-12-17T06:04:25.786Z,27.33
2018-12-17T06:06:51.734Z,32.50
2018-12-17T06:09:18.462Z,31.80
2018-12-17T06:11:44.489Z,29.07
2018-12-17T06:14:10.556Z,32.97
2018-12-17T06:16:36.545Z,31.90
2018-12-17T06:19:02.566Z,29.87
2018-12-17T06:21:29.265Z,31.90
2018-12-17T06:23:55.317Z,31.00
2018-12-17T06:26:21.202Z,32.87
2018-12-17T06:28:47.156Z,31.93
2018-12-17T06:31:13.119Z,32.50
2018-12-17T06:33:39.104Z,35.47
2018-12-17T06:36:05.072Z,33.87
2018-12-17T06:38:31.031Z,32.80
2018-12-17T06:40:58.015Z,36.50
2018-12-17T06:43:24.791Z,34.87
2018-12-17T06:45:51.610Z,31.60
2018-12-17T06:48:17.625Z,34.43
2018-12-17T06:50:43.619Z,33.10
2018-12-17T06:53:10.346Z,35.60
2018-12-17T06:55:36.387Z,33.93
2018-12-17T06:58:02.427Z,38.03
2018-12-17T07:00:28.456Z,33.43
2018-12-17T07:02:54.421Z,33.20
2018-12-17T07:05:20.410Z,30.53
2018-12-17T07:07:46.361Z,35.60
2018-12-17T07:10:12.333Z,31.00
2018-12-17T07:12:38.337Z,31.97
2018-12-17T07:15:04.338Z,32.80
2018-12-17T07:17:30.333Z,33.17
2018-12-17T07:19:56.287Z,31.60
2018-12-17T07:22:22.268Z,33.97
2018-12-17T07:24:48.240Z,33.70
2018-12-17T07:27:14.244Z,35.27
2018-12-17T07:29:40.302Z,32.57
2018-12-17T07:32:06.355Z,28.35
2018-12-17T07:34:32.431Z,30.23
2018-12-17T07:36:58.362Z,30.33
2018-12-17T07:39:24.394Z,28.37
2018-12-17T07:41:51.121Z,29.07
2018-12-17T07:44:17.100Z,28.90
2018-12-17T07:46:43.077Z,28.57
2018-12-17T07:49:09.043Z,27.67
2018-12-17T07:51:35.010Z,34.43
2018-12-17T07:54:01.001Z,30.17
2018-12-17T07:56:26.965Z,29.53
2018-12-17T07:58:52.934Z,30.10
2018-12-17T08:01:18.948Z,29.60
2018-12-17T08:03:44.933Z,29.13
2018-12-17T08:06:10.936Z,28.60
2018-12-17T08:08:36.908Z,29.80
2018-12-17T08:11:02.869Z,29.73
2018-12-17T08:13:28.861Z,30.73
2018-12-17T08:15:54.826Z,30.27
2018-12-17T08:18:21.581Z,34.10
2018-12-17T08:20:47.537Z,28.27
2018-12-17T08:23:13.557Z,33.60
2018-12-17T08:25:39.562Z,31.57
2018-12-17T08:28:05.527Z,29.53
2018-12-17T08:30:32.349Z,28.00
2018-12-17T08:32:58.339Z,27.33
2018-12-17T08:35:24.319Z,29.47
2018-12-17T08:37:50.283Z,30.73
2018-12-17T08:40:16.281Z,36.53
2018-12-17T08:42:42.986Z,30.40
2018-12-17T08:45:08.987Z,30.53
2018-12-17T08:47:34.950Z,27.57
2018-12-17T08:50:00.933Z,28.13
2018-12-17T08:52:26.907Z,27.50
2018-12-17T08:54:52.902Z,28.80
2018-12-17T08:57:18.895Z,25.00
2018-12-17T08:59:44.872Z,28.03
2018-12-17T09:02:10.835Z,27.57
2018-12-17T09:04:36.803Z,28.53
2018-12-17T09:07:02.769Z,29.97
2018-12-17T09:09:28.868Z,27.53
2018-12-17T09:11:54.901Z,27.37
2018-12-17T09:14:20.928Z,23.10
2018-12-17T09:16:46.870Z,29.10
2018-12-17T09:19:12.865Z,25.00
2018-12-17T09:21:38.814Z,27.00
2018-12-17T09:24:04.793Z,28.30
2018-12-17T09:26:31.539Z,25.20
2018-12-17T09:28:57.512Z,24.33
2018-12-17T09:31:23.487Z,25.57
2018-12-17T09:33:49.475Z,25.30
2018-12-17T09:36:15.466Z,24.30
2018-12-17T09:38:41.450Z,26.90
2018-12-17T09:41:07.417Z,26.63
2018-12-17T09:43:33.413Z,27.40
2018-12-17T09:45:59.426Z,26.50
2018-12-17T09:48:25.400Z,26.60
2018-12-17T09:50:51.369Z,26.00
2018-12-17T09:53:17.349Z,27.67
2018-12-17T09:55:44.094Z,26.97
2018-12-17T09:58:10.062Z,28.43
2018-12-17T10:00:36.095Z,27.10
2018-12-17T10:03:02.054Z,24.47
2018-12-17T10:05:28.030Z,23.33
2018-12-17T10:07:53.969Z,26.00
2018-12-17T10:10:19.944Z,23.33
2018-12-17T10:12:45.918Z,24.27
2018-12-17T10:15:11.918Z,22.63
2018-12-17T10:17:37.892Z,22.93
2018-12-17T10:20:03.872Z,20.97
2018-12-17T10:22:29.905Z,22.37
2018-12-17T10:24:55.862Z,22.40
2018-12-17T10:27:22.580Z,20.50
2018-12-17T10:29:48.593Z,20.67
2018-12-17T10:32:14.573Z,19.30
2018-12-17T10:34:40.558Z,17.30
2018-12-17T10:37:06.526Z,16.73
2018-12-17T10:39:32.514Z,15.73
2018-12-17T10:41:59.516Z,16.57
2018-12-17T10:44:25.534Z,16.10
2018-12-17T10:46:51.514Z,13.97
2018-12-17T10:49:17.473Z,15.57
2018-12-17T10:51:43.485Z,16.23
2018-12-17T10:54:09.487Z,16.73
2018-12-17T10:56:35.455Z,16.70
2018-12-17T10:59:01.422Z,12.40
2018-12-17T11:01:33.352Z,14.10
2018-12-17T11:03:59.340Z,13.50
2018-12-17T11:06:25.302Z,11.63
2018-12-17T11:08:51.236Z,14.90
2018-12-17T11:11:17.223Z,13.83
2018-12-17T11:13:43.193Z,13.70
2018-12-17T11:16:09.886Z,13.60
2018-12-17T11:18:35.875Z,15.57
2018-12-17T11:21:02.712Z,15.23
2018-12-17T11:23:28.681Z,15.40
2018-12-17T11:25:54.659Z,14.83
2018-12-17T11:28:20.642Z,13.13
2018-12-17T11:30:46.893Z,15.73
2018-12-17T11:33:12.622Z,16.20
2018-12-17T11:35:38.582Z,14.67
2018-12-17T11:38:04.592Z,16.60
2018-12-17T11:40:30.542Z,15.87
2018-12-17T11:42:56.486Z,19.43
2018-12-17T11:45:22.466Z,17.70
2018-12-17T11:47:48.429Z,17.57
2018-12-17T11:50:14.413Z,16.80
2018-12-17T11:52:40.409Z,19.17
2018-12-17T11:55:06.353Z,18.70
2018-12-17T12:11:05.911Z,36.20
2018-12-17T12:13:31.985Z,27.90
2018-12-17T12:15:58.023Z,22.53
2018-12-17T12:18:24.015Z,19.77
2018-12-17T12:20:50.006Z,19.70
2018-12-17T12:23:16.738Z,18.53
2018-12-17T12:25:43.524Z,18.47
2018-12-17T12:28:09.526Z,19.57
2018-12-17T12:30:35.646Z,19.30
2018-12-17T12:33:01.635Z,19.03
2018-12-17T12:35:28.495Z,19.63
2018-12-17T12:37:55.247Z,18.90
2018-12-17T12:40:21.232Z,19.10
2018-12-17T12:42:51.591Z,20.00
2018-12-17T12:45:14.743Z,19.97
2018-12-17T12:47:40.743Z,17.77
2018-12-17T12:50:06.737Z,20.20
2018-12-17T12:52:32.748Z,20.80
2018-12-17T12:54:58.735Z,22.67
2018-12-17T12:57:25.481Z,22.77
2018-12-17T12:59:51.662Z,19.97
2018-12-17T13:02:17.866Z,19.73
2018-12-17T13:04:43.932Z,19.10
2018-12-17T13:07:09.920Z,19.60
2018-12-17T13:09:35.950Z,20.30
2018-12-17T13:12:02.081Z,21.00
2018-12-17T13:14:28.090Z,21.87
2018-12-17T13:16:54.193Z,21.47
2018-12-17T13:19:20.258Z,20.70
2018-12-17T13:21:46.604Z,22.77
2018-12-17T13:24:12.614Z,21.23
2018-12-17T13:26:38.635Z,23.60
2018-12-17T13:29:04.788Z,23.03
2018-12-17T13:31:30.876Z,21.83
2018-12-17T13:33:56.889Z,20.10
2018-12-17T13:36:22.878Z,20.47
2018-12-17T13:38:56.590Z,19.53
2018-12-17T13:41:22.603Z,18.93
2018-12-17T13:43:49.425Z,18.77
2018-12-17T13:46:15.418Z,21.70
2018-12-17T13:48:41.456Z,21.73
2018-12-17T13:51:13.449Z,20.90
2018-12-17T13:53:39.432Z,21.20
2018-12-17T13:56:05.396Z,23.30
2018-12-17T13:58:31.362Z,21.03
2018-12-17T14:00:57.345Z,21.07
2018-12-17T14:03:23.300Z,20.37
2018-12-17T14:05:49.287Z,20.37
2018-12-17T14:08:15.258Z,19.43
2018-12-17T14:10:47.323Z,20.60
2018-12-17T14:13:13.288Z,19.67
2018-12-17T14:15:46.137Z,20.43
2018-12-17T14:18:18.600Z,20.37
2018-12-17T14:20:50.634Z,21.00
2018-12-17T14:23:16.610Z,21.87
2018-12-17T14:25:42.610Z,19.67
2018-12-17T14:28:08.570Z,22.77
2018-12-17T14:30:34.569Z,25.00
2018-12-17T14:33:00.545Z,23.07
2018-12-17T14:35:27.248Z,18.93
2018-12-17T14:37:59.325Z,20.10
2018-12-17T14:40:26.322Z,18.67
2018-12-17T14:42:52.358Z,19.60
2018-12-17T14:45:18.577Z,18.97
2018-12-17T14:47:44.552Z,18.23
2018-12-17T14:50:10.536Z,18.47
2018-12-17T14:52:36.502Z,20.10
2018-12-17T14:55:02.509Z,18.17
2018-12-17T14:57:28.532Z,17.93
2018-12-17T14:59:54.795Z,20.47
2018-12-17T15:02:20.802Z,17.70
2018-12-17T15:04:47.576Z,19.10
2018-12-17T15:07:13.698Z,18.00
2018-12-17T15:09:39.696Z,18.30
2018-12-17T15:12:05.670Z,18.30
2018-12-17T15:14:31.718Z,16.63
2018-12-17T15:16:57.761Z,18.17
2018-12-17T15:19:23.754Z,19.27
2018-12-17T15:21:49.723Z,16.00
2018-12-17T15:24:15.685Z,16.20
2018-12-17T15:26:41.660Z,15.90
2018-12-17T15:29:08.399Z,18.03
2018-12-17T15:31:35.090Z,17.27
2018-12-17T15:34:00.340Z,18.57
2018-12-17T15:36:26.323Z,15.23
2018-12-17T15:38:52.300Z,15.50
2018-12-17T15:41:18.270Z,18.37
2018-12-17T15:43:44.295Z,18.27
2018-12-17T15:46:10.319Z,16.60
2018-12-17T15:48:36.347Z,17.20
2018-12-17T15:51:02.506Z,16.60
2018-12-17T15:53:28.534Z,20.60
2018-12-17T15:55:54.522Z,18.87
2018-12-17T15:58:20.653Z,17.50
2018-12-17T16:00:46.654Z,19.60
2018-12-17T16:03:12.657Z,19.57
2018-12-17T16:05:38.717Z,17.73
2018-12-17T16:08:04.729Z,16.77
2018-12-17T16:10:31.495Z,18.70
2018-12-17T16:12:57.644Z,18.13
2018-12-17T16:15:23.649Z,19.40
2018-12-17T16:17:49.987Z,17.93
2018-12-17T16:20:16.206Z,19.40
2018-12-17T16:22:42.431Z,19.10
2018-12-17T16:25:08.829Z,18.90
2018-12-17T16:27:34.926Z,19.07
2018-12-17T16:30:00.922Z,19.00
2018-12-17T16:32:26.917Z,17.97
2018-12-17T16:34:52.947Z,18.30
2018-12-17T16:37:19.104Z,19.90
2018-12-17T16:39:46.869Z,18.10
2018-12-17T16:42:12.857Z,17.60
2018-12-17T16:44:38.997Z,18.40
2018-12-17T16:47:04.966Z,18.60
2018-12-17T16:49:30.974Z,18.57
2018-12-17T16:51:57.287Z,18.23
2018-12-17T16:54:23.253Z,17.60
2018-12-17T16:56:49.241Z,16.17
2018-12-17T16:59:15.222Z,17.53
2018-12-17T17:01:42.104Z,18.03
2018-12-17T17:04:08.491Z,20.57
2018-12-17T17:06:35.238Z,18.70
2018-12-17T17:09:02.017Z,19.00
2018-12-17T17:11:28.609Z,18.80
2018-12-17T17:13:54.930Z,19.77
2018-12-17T17:16:44.839Z,17.90
2018-12-17T17:19:10.907Z,20.17
2018-12-17T17:21:36.995Z,18.50
2018-12-17T17:24:02.968Z,17.80
2018-12-17T17:26:29.107Z,18.03
2018-12-17T17:28:55.394Z,18.80
2018-12-17T17:31:21.462Z,18.30
2018-12-17T17:33:47.466Z,16.40
2018-12-17T17:36:29.366Z,18.30
2018-12-17T17:38:55.352Z,17.03
2018-12-17T17:41:21.342Z,17.20
2018-12-17T17:43:47.427Z,18.07
2018-12-17T17:46:13.473Z,17.50
2018-12-17T17:48:39.747Z,18.63
2018-12-17T17:51:05.824Z,18.37
2018-12-17T17:53:31.833Z,16.30
2018-12-17T17:56:11.946Z,18.00
2018-12-17T17:58:38.014Z,16.17
2018-12-17T18:01:04.066Z,18.30
2018-12-17T18:03:30.105Z,15.97
2018-12-17T18:05:56.211Z,19.40
2018-12-17T18:08:22.289Z,16.33
2018-12-17T18:10:48.281Z,18.77
2018-12-17T18:13:14.243Z,19.27
2018-12-17T18:15:41.868Z,16.97
2018-12-17T18:18:06.870Z,18.90
2018-12-17T18:20:32.853Z,18.70
2018-12-17T18:22:59.562Z,17.40
2018-12-17T18:25:25.565Z,18.33
2018-12-17T18:27:52.199Z,17.97
2018-12-17T18:30:18.254Z,17.70
2018-12-17T18:32:44.206Z,17.20
2018-12-17T18:35:10.178Z,17.03
2018-12-17T18:37:36.158Z,17.80
2018-12-17T18:40:02.181Z,16.90
2018-12-17T18:42:28.136Z,16.57
2018-12-17T18:44:54.134Z,19.40
2018-12-17T18:47:25.792Z,18.07
2018-12-17T18:49:46.934Z,17.23
2018-12-17T18:52:12.908Z,17.97
2018-12-17T18:54:38.882Z,16.83
2018-12-17T18:57:04.865Z,15.30
2018-12-17T18:59:30.869Z,17.80
2018-12-17T19:01:56.874Z,17.23
2018-12-17T19:04:22.820Z,18.03
2018-12-17T19:06:48.799Z,14.97
2018-12-17T19:09:14.780Z,17.50
2018-12-17T19:11:40.826Z,19.83
2018-12-17T19:14:07.017Z,18.17
2018-12-17T19:16:33.537Z,17.83
2018-12-17T19:18:59.634Z,16.23
2018-12-17T19:21:26.387Z,17.90
2018-12-17T19:23:52.373Z,18.03
2018-12-17T19:26:18.339Z,16.83
2018-12-17T19:28:44.310Z,17.20
2018-12-17T19:31:10.270Z,15.10
2018-12-17T19:33:36.260Z,16.20
2018-12-17T19:36:02.667Z,16.57
2018-12-17T19:38:28.721Z,17.10
2018-12-17T19:40:55.227Z,16.23
2018-12-17T19:43:21.185Z,16.77
2018-12-17T19:45:47.390Z,16.70
2018-12-17T19:48:13.376Z,16.70
2018-12-17T19:50:39.426Z,16.30
2018-12-17T19:53:05.724Z,17.10
2018-12-17T19:55:31.801Z,17.20
2018-12-17T19:57:57.857Z,17.40
2018-12-17T20:00:23.853Z,17.00
2018-12-17T20:03:02.910Z,19.60
2018-12-17T20:05:28.905Z,17.40
2018-12-17T20:07:54.871Z,18.60
2018-12-17T20:10:20.905Z,16.27
2018-12-17T20:12:46.916Z,16.83
2018-12-17T20:15:12.878Z,17.77
2018-12-17T20:17:38.893Z,16.77
2018-12-17T20:20:04.996Z,16.97
2018-12-17T20:22:31.341Z,17.20
2018-12-17T20:24:58.889Z,17.63
2018-12-17T20:27:24.846Z,18.37
2018-12-17T20:29:50.811Z,18.97
2018-12-17T20:32:16.790Z,17.47
2018-12-17T20:34:42.749Z,18.57
2018-12-17T20:37:08.703Z,18.30
2018-12-17T20:39:34.684Z,16.73
2018-12-17T20:42:00.835Z,17.60
2018-12-17T20:44:26.828Z,17.43
2018-12-17T20:46:52.884Z,18.37
2018-12-17T20:49:19.693Z,16.53
2018-12-17T20:51:45.640Z,18.60
2018-12-17T20:54:11.631Z,20.23
2018-12-17T20:56:37.578Z,18.30
2018-12-17T20:59:03.537Z,17.93
2018-12-17T21:01:29.612Z,16.80
2018-12-17T21:03:55.561Z,17.50
2018-12-17T21:06:21.533Z,16.87
2018-12-17T21:08:48.256Z,18.70
2018-12-17T21:11:14.556Z,16.30
2018-12-17T21:13:40.550Z,19.73
2018-12-17T21:16:06.663Z,18.53
2018-12-17T21:18:32.622Z,31.80
2018-12-17T21:20:58.573Z,21.03
2018-12-17T21:23:24.570Z,19.87
2018-12-17T21:25:50.584Z,17.67
2018-12-17T21:28:16.537Z,16.00
2018-12-17T21:30:42.518Z,16.53
2018-12-17T21:33:08.542Z,14.70
2018-12-17T21:35:34.512Z,15.90
2018-12-17T21:38:00.458Z,15.00
2018-12-17T21:40:26.473Z,14.80
2018-12-17T21:42:53.176Z,15.13
2018-12-17T21:45:19.152Z,15.97
2018-12-17T21:47:45.202Z,13.73
2018-12-17T21:50:11.161Z,14.80
2018-12-17T21:52:37.131Z,15.47
2018-12-17T21:55:03.102Z,15.60
2018-12-17T21:57:29.889Z,15.60
2018-12-17T21:59:55.850Z,15.93
2018-12-17T22:02:21.816Z,16.40
2018-12-17T22:04:47.839Z,15.40
2018-12-17T22:07:13.790Z,14.37
2018-12-17T22:09:39.769Z,13.63
2018-12-17T22:12:05.734Z,14.57
2018-12-17T22:14:31.709Z,14.87
2018-12-17T22:16:57.665Z,15.00
2018-12-17T22:19:23.646Z,15.13
2018-12-17T22:21:49.599Z,14.43
2018-12-17T22:24:15.596Z,14.60
2018-12-17T22:26:41.554Z,14.10
2018-12-17T22:29:07.505Z,16.53
2018-12-17T22:31:33.475Z,14.10
2018-12-17T22:33:59.468Z,14.53
2018-12-17T22:36:26.185Z,14.93
2018-12-17T22:38:52.175Z,16.40
2018-12-17T22:41:18.143Z,15.40
2018-12-17T22:43:44.119Z,15.07
2018-12-17T22:46:10.076Z,15.40
2018-12-17T22:48:36.053Z,15.27
2018-12-17T22:51:02.037Z,16.37
2018-12-17T22:53:27.993Z,15.10
2018-12-17T22:55:53.975Z,16.67
2018-12-17T22:58:19.954Z,15.53
2018-12-17T23:00:45.941Z,15.00
2018-12-17T23:03:11.899Z,15.40
2018-12-17T23:05:37.877Z,17.57
2018-12-17T23:08:03.888Z,16.97
2018-12-17T23:10:42.371Z,16.80
2018-12-17T23:13:20.697Z,16.60
2018-12-17T23:15:59.005Z,17.73
2018-12-17T23:18:24.870Z,15.13
2018-12-17T23:20:50.817Z,17.63
2018-12-17T23:23:16.761Z,16.73
2018-12-17T23:25:42.741Z,14.50
2018-12-17T23:28:08.725Z,12.73
2018-12-17T23:30:34.666Z,14.50
2018-12-17T23:33:00.658Z,14.87
2018-12-17T23:35:26.609Z,18.17
2018-12-17T23:37:52.576Z,17.73
2018-12-17T23:40:18.525Z,16.03
2018-12-17T23:42:44.516Z,17.07
2018-12-17T23:45:10.571Z,16.93
2018-12-17T23:47:36.560Z,18.33
2018-12-17T23:50:02.538Z,17.00
2018-12-17T23:52:28.494Z,16.10
2018-12-17T23:54:54.462Z,16.60
2018-12-17T23:57:20.414Z,15.40
2018-12-17T23:59:46.394Z,18.17
